Time;durP1;ratioP1;P1;durP2;ratioP2;P2;SDS_P1;SDS_P2;PMS_P1;PMS_P2;Temp;Humidity;BMP_temperature;BMP_pressure;BME280_temperature;BME280_humidity;BME280_pressure;Samples;Min_cycle;Max_cycle;Signal;HPM_P1;HPM_P2
2024/03/03 00:01:48;;;;;;;;;;;5.10;99.90;;;;;;5021310;28;20002;-78
2024/03/03 00:04:13;;;;;;;;;;;5.20;99.90;;;;;;5019829;28;19985;-79
2024/03/03 00:06:39;;;;;;;;;;;5.20;99.90;;;;;;5019130;28;19993;-79
2024/03/03 00:09:05;;;;;;;;;;;5.30;99.90;;;;;;5021272;28;20080;-78
2024/03/03 00:11:31;;;;;;;;;;;5.10;99.90;;;;;;5021789;28;20044;-78
2024/03/03 00:13:57;;;;;;;;;;;5.20;99.90;;;;;;5019250;28;20035;-78
2024/03/03 00:16:22;;;;;;;;;;;5.20;99.90;;;;;;5021019;28;19989;-78
2024/03/03 00:18:48;;;;;;;;;;;5.10;99.90;;;;;;5020832;28;20004;-78
2024/03/03 00:21:14;;;;;;;;;;;4.90;99.90;;;;;;5018743;28;20084;-79
2024/03/03 00:23:39;;;;;;;;;;;5.10;99.90;;;;;;5020729;28;19981;-78
2024/03/03 00:26:05;;;;;;;;;;;5.00;99.90;;;;;;5020240;28;20138;-77
2024/03/03 00:28:31;;;;;;;;;;;5.10;99.90;;;;;;5021047;28;20026;-78
2024/03/03 00:30:56;;;;;;;;;;;5.20;99.90;;;;;;5020460;28;20024;-78
2024/03/03 00:33:22;;;;;;;;;;;5.10;99.90;;;;;;5022569;28;19986;-79
2024/03/03 00:35:47;;;;;;;;;;;5.20;99.90;;;;;;5024265;28;20013;-78
2024/03/03 00:38:13;;;;;;;;;;;5.20;99.90;;;;;;5024738;28;19985;-78
2024/03/03 00:40:39;;;;;;;;;;;5.10;99.90;;;;;;5023903;28;20064;-78
2024/03/03 00:43:05;;;;;;;;;;;5.00;99.90;;;;;;5022738;28;19985;-77
2024/03/03 00:45:30;;;;;;;;;;;5.10;99.90;;;;;;5021522;28;20021;-78
2024/03/03 00:47:56;;;;;;;;;;;5.20;99.90;;;;;;5023425;28;20108;-77
2024/03/03 00:50:22;;;;;;;;;;;5.00;99.90;;;;;;5023935;28;20144;-77
2024/03/03 00:52:49;;;;;;;;;;;4.90;99.90;;;;;;5021777;28;20404;-77
2024/03/03 00:55:15;;;;;;;;;;;5.10;99.90;;;;;;5023029;28;20499;-77
2024/03/03 00:57:40;;;;;;;;;;;5.20;99.90;;;;;;5024065;28;19997;-79
2024/03/03 01:00:08;;;;;;;;;;;5.10;99.90;;;;;;5023005;28;19989;-77
2024/03/03 01:02:34;;;;;;;;;;;5.00;99.90;;;;;;5023486;28;20814;-79
2024/03/03 01:04:59;;;;;;;;;;;4.90;99.90;;;;;;5020122;28;20010;-78
2024/03/03 01:07:25;;;;;;;;;;;4.80;99.90;;;;;;5023412;28;19990;-78
2024/03/03 01:09:51;;;;;;;;;;;4.90;99.90;;;;;;5022783;28;20368;-77
2024/03/03 01:12:16;;;;;;;;;;;4.90;99.90;;;;;;5019482;28;20041;-77
2024/03/03 01:14:42;;;;;;;;;;;5.00;99.90;;;;;;5023230;28;20025;-78
2024/03/03 01:17:07;;;;;;;;;;;5.20;99.90;;;;;;5022829;28;20063;-78
2024/03/03 01:19:34;;;;;;;;;;;5.10;99.90;;;;;;5022593;28;19990;-78
2024/03/03 01:22:00;;;;;;;;;;;5.10;99.90;;;;;;5023257;28;19994;-77
2024/03/03 01:24:25;;;;;;;;;;;5.20;99.90;;;;;;5018799;28;20010;-79
2024/03/03 01:26:51;;;;;;;;;;;5.20;99.90;;;;;;5022353;28;20766;-77
2024/03/03 01:29:17;;;;;;;;;;;5.20;99.90;;;;;;5022915;28;19986;-78
2024/03/03 01:31:43;;;;;;;;;;;5.30;99.90;;;;;;5022599;28;20464;-77
2024/03/03 01:34:09;;;;;;;;;;;5.20;99.90;;;;;;5023156;28;20035;-78
2024/03/03 01:36:34;;;;;;;;;;;5.10;99.90;;;;;;5022759;28;19998;-77
2024/03/03 01:39:01;;;;;;;;;;;5.10;99.90;;;;;;5023080;28;19990;-79
2024/03/03 01:41:27;;;;;;;;;;;5.20;99.90;;;;;;5022052;28;20745;-77
2024/03/03 01:43:52;;;;;;;;;;;5.10;99.90;;;;;;5020895;28;19990;-77
2024/03/03 01:46:18;;;;;;;;;;;5.20;99.90;;;;;;5019283;28;20060;-77
2024/03/03 01:48:44;;;;;;;;;;;5.10;99.90;;;;;;5022275;28;19990;-78
2024/03/03 01:51:10;;;;;;;;;;;5.10;99.90;;;;;;5021982;28;20493;-78
2024/03/03 01:53:37;;;;;;;;;;;5.20;99.90;;;;;;5019312;28;19986;-77
2024/03/03 01:56:03;;;;;;;;;;;5.20;99.90;;;;;;5021383;28;19986;-77
2024/03/03 01:58:29;;;;;;;;;;;5.10;99.90;;;;;;5022769;28;19994;-77
2024/03/03 02:00:55;;;;;;;;;;;5.00;99.90;;;;;;5022628;28;20096;-77
2024/03/03 02:03:21;;;;;;;;;;;5.00;99.90;;;;;;5022771;28;20523;-78
2024/03/03 02:05:47;;;;;;;;;;;5.10;99.90;;;;;;5020958;28;20013;-77
2024/03/03 02:08:13;;;;;;;;;;;5.10;99.90;;;;;;5020994;28;19994;-77
2024/03/03 02:10:39;;;;;;;;;;;5.10;99.90;;;;;;5022641;28;20040;-78
2024/03/03 02:13:05;;;;;;;;;;;5.10;99.90;;;;;;5022104;28;20084;-78
2024/03/03 02:15:30;;;;;;;;;;;5.10;99.90;;;;;;5022487;28;20464;-78
2024/03/03 02:17:56;;;;;;;;;;;5.10;99.90;;;;;;5021757;28;19986;-77
2024/03/03 02:20:23;;;;;;;;;;;5.10;99.90;;;;;;5019682;28;19993;-77
2024/03/03 02:22:49;;;;;;;;;;;5.10;99.90;;;;;;5022402;28;19993;-77
2024/03/03 02:25:15;;;;;;;;;;;5.10;99.90;;;;;;5017020;28;20060;-77
2024/03/03 02:27:41;;;;;;;;;;;5.10;99.90;;;;;;5022262;28;19986;-78
2024/03/03 02:30:06;;;;;;;;;;;5.10;99.90;;;;;;5021708;28;20033;-77
2024/03/03 02:32:32;;;;;;;;;;;5.00;99.90;;;;;;5019933;28;20617;-77
2024/03/03 02:34:57;;;;;;;;;;;5.00;99.90;;;;;;5021845;28;20090;-77
2024/03/03 02:37:23;;;;;;;;;;;5.00;99.90;;;;;;5021155;28;20029;-77
2024/03/03 02:39:48;;;;;;;;;;;4.80;99.90;;;;;;5021346;28;19990;-77
2024/03/03 02:42:14;;;;;;;;;;;4.80;99.90;;;;;;5021014;28;19993;-77
2024/03/03 02:44:39;;;;;;;;;;;5.00;99.90;;;;;;5017134;28;20009;-77
2024/03/03 02:47:05;;;;;;;;;;;5.10;99.90;;;;;;5022434;28;20045;-78
2024/03/03 02:49:31;;;;;;;;;;;5.00;99.90;;;;;;5021470;28;20565;-78
2024/03/03 02:51:56;;;;;;;;;;;5.00;99.90;;;;;;5021316;28;19993;-77
2024/03/03 02:54:22;;;;;;;;;;;5.00;99.90;;;;;;5018941;28;19993;-78
2024/03/03 02:56:49;;;;;;;;;;;4.90;99.90;;;;;;5020381;28;20576;-78
2024/03/03 02:59:14;;;;;;;;;;;4.90;99.90;;;;;;5018508;28;19990;-78
2024/03/03 03:01:40;;;;;;;;;;;4.80;99.90;;;;;;5021778;28;19986;-77
2024/03/03 03:04:05;;;;;;;;;;;4.90;99.90;;;;;;5021427;28;20068;-78
2024/03/03 03:06:31;;;;;;;;;;;5.00;99.90;;;;;;5017437;28;20022;-78
2024/03/03 03:08:56;;;;;;;;;;;4.90;99.90;;;;;;5019189;28;19990;-78
2024/03/03 03:11:24;;;;;;;;;;;4.90;99.90;;;;;;5021342;28;20033;-79
2024/03/03 03:13:49;;;;;;;;;;;4.80;99.90;;;;;;5020300;28;20469;-78
2024/03/03 03:16:15;;;;;;;;;;;4.80;99.90;;;;;;5019048;28;20080;-79
2024/03/03 03:18:41;;;;;;;;;;;4.70;99.90;;;;;;5020989;28;19990;-78
2024/03/03 03:21:07;;;;;;;;;;;4.70;99.90;;;;;;5020933;28;20009;-79
2024/03/03 03:23:32;;;;;;;;;;;4.70;99.90;;;;;;5020578;28;20755;-78
2024/03/03 03:25:58;;;;;;;;;;;4.60;99.90;;;;;;5019838;28;20465;-78
2024/03/03 03:28:23;;;;;;;;;;;4.70;99.90;;;;;;5020799;28;19997;-78
2024/03/03 03:30:49;;;;;;;;;;;4.70;99.90;;;;;;5019456;28;19986;-78
2024/03/03 03:33:15;;;;;;;;;;;4.60;99.90;;;;;;5020940;28;19999;-78
2024/03/03 03:35:41;;;;;;;;;;;4.60;99.90;;;;;;5020881;28;19989;-79
2024/03/03 03:38:07;;;;;;;;;;;4.70;99.90;;;;;;5020530;28;19986;-78
2024/03/03 03:40:32;;;;;;;;;;;4.50;99.90;;;;;;5015651;28;19992;-79
2024/03/03 03:42:58;;;;;;;;;;;4.60;99.90;;;;;;5020246;28;20481;-78
2024/03/03 03:45:23;;;;;;;;;;;4.70;99.90;;;;;;5018672;28;20049;-79
2024/03/03 03:47:49;;;;;;;;;;;4.70;99.90;;;;;;5021313;28;20040;-79
2024/03/03 03:50:14;;;;;;;;;;;4.70;99.90;;;;;;5019904;28;20018;-78
2024/03/03 03:52:40;;;;;;;;;;;4.60;99.90;;;;;;5019649;28;19986;-78
2024/03/03 03:55:06;;;;;;;;;;;4.60;99.90;;;;;;5015541;28;20104;-78
2024/03/03 03:57:32;;;;;;;;;;;4.60;99.90;;;;;;5018677;28;19985;-78
2024/03/03 03:59:57;;;;;;;;;;;4.70;99.90;;;;;;5020569;28;19990;-78
2024/03/03 04:02:23;;;;;;;;;;;4.70;99.90;;;;;;5019031;28;19986;-78
2024/03/03 04:04:48;;;;;;;;;;;4.70;99.90;;;;;;5016720;28;20021;-78
2024/03/03 04:07:14;;;;;;;;;;;4.70;99.90;;;;;;5019021;28;19997;-78
2024/03/03 04:09:40;;;;;;;;;;;4.70;99.90;;;;;;5022429;28;20234;-78
2024/03/03 04:12:06;;;;;;;;;;;4.70;99.90;;;;;;5022911;28;20084;-77
2024/03/03 04:14:32;;;;;;;;;;;4.70;99.90;;;;;;5022096;28;19993;-78
2024/03/03 04:16:57;;;;;;;;;;;4.60;99.90;;;;;;5024058;28;19990;-78
2024/03/03 04:19:23;;;;;;;;;;;4.80;99.90;;;;;;5024675;28;20648;-79
2024/03/03 04:21:49;;;;;;;;;;;4.90;99.90;;;;;;5023838;28;20040;-79
2024/03/03 04:24:14;;;;;;;;;;;4.80;99.90;;;;;;5022667;28;19997;-78
2024/03/03 04:26:42;;;;;;;;;;;4.80;99.90;;;;;;5023982;28;20012;-77
2024/03/03 04:29:07;;;;;;;;;;;4.80;99.90;;;;;;5021361;28;19990;-78
2024/03/03 04:31:33;;;;;;;;;;;4.70;99.90;;;;;;5022806;28;19986;-78
2024/03/03 04:33:58;;;;;;;;;;;4.70;99.90;;;;;;5024482;28;19989;-77
2024/03/03 04:36:24;;;;;;;;;;;4.80;99.90;;;;;;5023355;28;20040;-78
2024/03/03 04:38:50;;;;;;;;;;;4.70;99.90;;;;;;5022406;28;19998;-78
2024/03/03 04:41:16;;;;;;;;;;;4.70;99.90;;;;;;5023597;28;19990;-79
2024/03/03 04:43:42;;;;;;;;;;;4.70;99.90;;;;;;5023706;28;20445;-78
2024/03/03 04:46:08;;;;;;;;;;;4.70;99.90;;;;;;5020418;28;20043;-78
2024/03/03 04:48:34;;;;;;;;;;;4.80;99.90;;;;;;5020771;28;20040;-78
2024/03/03 04:51:00;;;;;;;;;;;4.80;99.90;;;;;;5021783;28;20095;-78
2024/03/03 04:53:25;;;;;;;;;;;4.80;99.90;;;;;;5022552;28;19986;-78
2024/03/03 04:55:51;;;;;;;;;;;4.80;99.90;;;;;;5022048;28;19989;-77
2024/03/03 04:58:17;;;;;;;;;;;4.70;99.90;;;;;;5018578;28;20054;-77
2024/03/03 05:00:42;;;;;;;;;;;4.80;99.90;;;;;;5020173;28;20501;-78
2024/03/03 05:03:09;;;;;;;;;;;4.80;99.90;;;;;;5020786;28;19989;-78
2024/03/03 05:05:35;;;;;;;;;;;4.80;99.90;;;;;;5022305;28;20006;-78
2024/03/03 05:08:00;;;;;;;;;;;4.90;99.90;;;;;;5023473;28;19990;-78
2024/03/03 05:10:26;;;;;;;;;;;5.00;99.90;;;;;;5021620;28;20487;-78
2024/03/03 05:12:51;;;;;;;;;;;4.90;99.90;;;;;;5021708;28;20730;-78
2024/03/03 05:15:17;;;;;;;;;;;4.70;99.90;;;;;;5022205;28;20035;-78
2024/03/03 05:17:42;;;;;;;;;;;4.70;99.90;;;;;;5023371;28;20272;-78
2024/03/03 05:20:08;;;;;;;;;;;4.70;99.90;;;;;;5020389;28;19990;-77
2024/03/03 05:22:33;;;;;;;;;;;4.90;99.90;;;;;;5023681;28;20101;-77
2024/03/03 05:24:59;;;;;;;;;;;5.00;99.90;;;;;;5021675;28;20048;-77
2024/03/03 05:27:24;;;;;;;;;;;5.00;99.90;;;;;;5023461;28;20798;-77
2024/03/03 05:29:51;;;;;;;;;;;4.90;99.90;;;;;;5023122;28;20001;-77
2024/03/03 05:32:16;;;;;;;;;;;4.80;99.90;;;;;;5022705;28;19986;-77
2024/03/03 05:34:42;;;;;;;;;;;5.00;99.90;;;;;;5023561;28;20476;-78
2024/03/03 05:37:08;;;;;;;;;;;4.90;99.90;;;;;;5023178;28;19996;-78
2024/03/03 05:39:34;;;;;;;;;;;4.80;99.90;;;;;;5022771;28;19993;-78
2024/03/03 05:42:00;;;;;;;;;;;4.60;99.90;;;;;;5022663;28;19998;-78
2024/03/03 05:44:26;;;;;;;;;;;4.50;99.90;;;;;;5022954;28;19986;-79
2024/03/03 05:46:51;;;;;;;;;;;4.50;99.90;;;;;;5022933;28;19996;-79
2024/03/03 05:49:17;;;;;;;;;;;4.60;99.90;;;;;;5021757;28;20089;-78
2024/03/03 05:51:42;;;;;;;;;;;4.50;99.90;;;;;;5021612;28;20029;-79
2024/03/03 05:54:08;;;;;;;;;;;4.60;99.90;;;;;;5021294;28;20539;-81
2024/03/03 05:56:33;;;;;;;;;;;4.60;99.90;;;;;;5020925;28;20028;-80
2024/03/03 05:58:59;;;;;;;;;;;4.70;99.90;;;;;;5016403;28;20024;-79
2024/03/03 06:01:24;;;;;;;;;;;4.70;99.90;;;;;;5019576;28;20024;-79
2024/03/03 06:03:50;;;;;;;;;;;4.70;99.90;;;;;;5021811;28;19990;-78
2024/03/03 06:06:16;;;;;;;;;;;4.70;99.90;;;;;;5018230;28;20974;-79
2024/03/03 06:08:42;;;;;;;;;;;4.70;99.90;;;;;;5022567;28;20797;-80
2024/03/03 06:11:08;;;;;;;;;;;4.60;99.90;;;;;;5022538;28;20091;-79
2024/03/03 06:13:34;;;;;;;;;;;4.70;99.90;;;;;;5022445;28;19986;-78
2024/03/03 06:16:00;;;;;;;;;;;4.60;99.90;;;;;;5022403;28;20514;-77
2024/03/03 06:18:27;;;;;;;;;;;4.60;99.90;;;;;;5022419;28;19986;-77
2024/03/03 06:20:53;;;;;;;;;;;4.60;99.90;;;;;;5021650;28;19986;-77
2024/03/03 06:23:18;;;;;;;;;;;4.60;99.90;;;;;;5022209;28;20678;-77
2024/03/03 06:25:44;;;;;;;;;;;4.50;99.90;;;;;;5020737;28;20006;-78
2024/03/03 06:28:10;;;;;;;;;;;4.60;99.90;;;;;;5022226;28;20019;-77
2024/03/03 06:30:35;;;;;;;;;;;4.60;99.90;;;;;;5020459;28;20483;-79
2024/03/03 06:33:01;;;;;;;;;;;4.70;99.90;;;;;;5021223;28;19990;-75
2024/03/03 06:35:26;;;;;;;;;;;4.60;99.90;;;;;;5021316;28;20031;-77
2024/03/03 06:37:52;;;;;;;;;;;4.60;99.90;;;;;;5021818;28;20047;-76
2024/03/03 06:40:17;;;;;;;;;;;4.60;99.90;;;;;;5022355;28;20035;-77
2024/03/03 06:42:43;;;;;;;;;;;4.60;99.90;;;;;;5022648;28;19985;-76
2024/03/03 06:45:09;;;;;;;;;;;4.60;99.90;;;;;;5017440;28;20010;-78
2024/03/03 06:47:34;;;;;;;;;;;4.60;99.90;;;;;;5021914;28;19990;-78
2024/03/03 06:50:00;;;;;;;;;;;4.50;99.90;;;;;;5016582;28;20840;-77
2024/03/03 06:52:26;;;;;;;;;;;4.60;99.90;;;;;;5022177;28;20039;-78
2024/03/03 06:54:52;;;;;;;;;;;4.60;99.90;;;;;;5020775;28;21015;-79
2024/03/03 06:57:17;;;;;;;;;;;4.80;99.90;;;;;;5017554;28;19990;-77
2024/03/03 06:59:43;;;;;;;;;;;4.80;99.90;;;;;;5021432;28;19986;-78
2024/03/03 07:02:09;;;;;;;;;;;4.80;99.90;;;;;;5020703;28;19989;-78
2024/03/03 07:04:34;;;;;;;;;;;4.80;99.90;;;;;;5021080;28;19993;-79
2024/03/03 07:07:00;;;;;;;;;;;4.70;99.90;;;;;;5022173;28;19986;-79
2024/03/03 07:09:26;;;;;;;;;;;4.80;99.90;;;;;;5022411;28;20040;-79
2024/03/03 07:11:55;;;;;;;;;;;4.80;99.90;;;;;;5022156;28;19989;-79
2024/03/03 07:14:21;;;;;;;;;;;4.80;99.90;;;;;;5021673;28;20514;-79
2024/03/03 07:16:47;;;;;;;;;;;4.80;99.90;;;;;;5020229;28;20092;-78
2024/03/03 07:19:13;;;;;;;;;;;4.80;99.90;;;;;;5021820;28;19986;-78
2024/03/03 07:21:38;;;;;;;;;;;4.80;99.90;;;;;;5022051;28;19992;-79
2024/03/03 07:24:04;;;;;;;;;;;4.80;99.90;;;;;;5022030;28;20420;-79
2024/03/03 07:26:30;;;;;;;;;;;4.70;99.90;;;;;;5022115;28;20364;-78
2024/03/03 07:28:55;;;;;;;;;;;4.70;99.90;;;;;;5022185;28;19993;-78
2024/03/03 07:31:21;;;;;;;;;;;4.60;99.90;;;;;;5018897;28;19998;-78
2024/03/03 07:33:46;;;;;;;;;;;4.60;99.90;;;;;;5022184;28;19986;-77
2024/03/03 07:36:12;;;;;;;;;;;4.80;99.90;;;;;;5021704;28;19986;-78
2024/03/03 07:38:37;;;;;;;;;;;4.80;99.90;;;;;;5021986;28;19985;-78
2024/03/03 07:41:03;;;;;;;;;;;5.00;99.90;;;;;;5021490;28;19986;-79
2024/03/03 07:43:29;;;;;;;;;;;5.10;99.90;;;;;;5023344;28;19993;-78
2024/03/03 07:45:54;;;;;;;;;;;5.20;99.90;;;;;;5023732;28;20849;-79
2024/03/03 07:48:20;;;;;;;;;;;5.30;99.90;;;;;;5023403;28;19986;-77
2024/03/03 07:50:45;;;;;;;;;;;5.20;99.90;;;;;;5025145;28;20064;-78
2024/03/03 07:53:11;;;;;;;;;;;5.40;99.90;;;;;;5020299;28;20028;-78
2024/03/03 07:55:36;;;;;;;;;;;5.40;99.90;;;;;;5024792;28;20084;-78
2024/03/03 07:58:02;;;;;;;;;;;5.50;99.90;;;;;;5025696;28;19985;-78
2024/03/03 08:00:33;;;;;;;;;;;5.50;99.90;;;;;;5018585;28;20081;-79
2024/03/03 08:03:04;;;;;;;;;;;5.60;99.90;;;;;;5025393;28;19993;-78
2024/03/03 08:05:32;;;;;;;;;;;5.60;99.90;;;;;;5020665;28;20620;-77
2024/03/03 08:07:58;;;;;;;;;;;5.60;99.90;;;;;;5025554;28;19997;-78
2024/03/03 08:10:23;;;;;;;;;;;5.50;99.90;;;;;;5025275;28;20056;-79
2024/03/03 08:12:49;;;;;;;;;;;5.60;99.90;;;;;;5025156;28;19986;-78
2024/03/03 08:15:14;;;;;;;;;;;5.60;99.90;;;;;;5025438;28;19992;-79
2024/03/03 08:17:40;;;;;;;;;;;5.40;99.90;;;;;;5025498;28;20005;-78
2024/03/03 08:20:06;;;;;;;;;;;5.50;99.90;;;;;;5024658;28;20029;-78
2024/03/03 08:22:31;;;;;;;;;;;5.50;99.90;;;;;;5023944;28;19997;-79
2024/03/03 08:24:57;;;;;;;;;;;5.30;99.90;;;;;;5023619;28;20384;-78
2024/03/03 08:27:22;;;;;;;;;;;5.40;99.90;;;;;;5025213;28;20766;-77
2024/03/03 08:29:48;;;;;;;;;;;5.50;99.90;;;;;;5024757;28;20058;-79
2024/03/03 08:32:13;;;;;;;;;;;5.60;99.90;;;;;;5025093;28;20391;-80
2024/03/03 08:34:39;;;;;;;;;;;5.80;99.90;;;;;;5025370;28;20449;-78
2024/03/03 08:37:04;;;;;;;;;;;5.70;99.90;;;;;;5025170;28;19990;-79
2024/03/03 08:39:30;;;;;;;;;;;5.70;99.90;;;;;;5025421;28;20040;-78
2024/03/03 08:41:55;;;;;;;;;;;5.60;99.90;;;;;;5024712;28;20043;-77
2024/03/03 08:44:21;;;;;;;;;;;5.60;99.90;;;;;;5025478;28;19990;-78
2024/03/03 08:46:48;;;;;;;;;;;5.50;99.90;;;;;;5023636;28;20009;-78
2024/03/03 08:49:13;;;;;;;;;;;5.70;99.90;;;;;;5017519;28;19990;-79
2024/03/03 08:51:40;;;;;;;;;;;5.80;99.90;;;;;;5024879;28;19996;-78
2024/03/03 08:54:06;;;;;;;;;;;5.80;99.90;;;;;;5020762;28;20089;-78
2024/03/03 08:56:31;;;;;;;;;;;5.80;99.90;;;;;;5024680;28;20743;-79
2024/03/03 08:58:57;;;;;;;;;;;6.00;99.90;;;;;;5023490;28;19990;-78
2024/03/03 09:01:23;;;;;;;;;;;5.90;99.90;;;;;;5024780;28;19986;-78
2024/03/03 09:03:48;;;;;;;;;;;6.10;99.90;;;;;;5024800;28;19986;-79
2024/03/03 09:06:14;;;;;;;;;;;6.10;99.90;;;;;;5020320;28;20052;-78
2024/03/03 09:08:39;;;;;;;;;;;6.10;99.90;;;;;;5024216;28;19996;-79
2024/03/03 09:11:06;;;;;;;;;;;6.00;99.90;;;;;;5024593;28;20504;-78
2024/03/03 09:13:34;;;;;;;;;;;5.80;99.90;;;;;;5024553;28;19997;-77
2024/03/03 09:16:00;;;;;;;;;;;5.90;99.90;;;;;;5022366;28;19985;-77
2024/03/03 09:18:26;;;;;;;;;;;6.10;99.90;;;;;;5023124;28;20042;-78
2024/03/03 09:20:51;;;;;;;;;;;6.20;99.90;;;;;;5024848;28;19990;-78
2024/03/03 09:23:18;;;;;;;;;;;6.50;99.90;;;;;;5024353;28;20437;-77
2024/03/03 09:25:44;;;;;;;;;;;6.40;99.90;;;;;;5024610;28;20129;-80
2024/03/03 09:28:09;;;;;;;;;;;6.60;99.90;;;;;;5024229;28;20526;-79
2024/03/03 09:30:35;;;;;;;;;;;6.60;99.90;;;;;;5022839;28;19989;-78
2024/03/03 09:33:01;;;;;;;;;;;6.60;99.90;;;;;;5021558;28;20445;-79
2024/03/03 09:35:27;;;;;;;;;;;6.50;99.90;;;;;;5023953;28;20025;-78
2024/03/03 09:37:52;;;;;;;;;;;6.60;99.90;;;;;;5023691;28;20077;-78
2024/03/03 09:40:19;;;;;;;;;;;6.70;99.90;;;;;;5023883;28;19992;-79
2024/03/03 09:42:45;;;;;;;;;;;6.80;99.90;;;;;;5024177;28;19986;-79
2024/03/03 09:45:14;;;;;;;;;;;6.90;99.90;;;;;;5023896;28;20006;-78
2024/03/03 09:47:40;;;;;;;;;;;6.90;99.90;;;;;;5023469;28;20136;-78
2024/03/03 09:50:13;;;;;;;;;;;7.00;99.90;;;;;;5020686;28;20473;-79
2024/03/03 09:52:42;;;;;;;;;;;7.00;99.90;;;;;;5019248;28;19985;-79
2024/03/03 09:55:11;;;;;;;;;;;6.90;99.90;;;;;;5020585;28;19982;-78
2024/03/03 09:57:38;;;;;;;;;;;6.90;99.90;;;;;;5023338;28;20101;-78
2024/03/03 10:00:04;;;;;;;;;;;7.00;99.90;;;;;;5023942;28;19994;-79
2024/03/03 10:02:31;;;;;;;;;;;7.10;99.90;;;;;;5023424;28;20032;-77
2024/03/03 10:04:57;;;;;;;;;;;7.10;99.90;;;;;;5019182;28;20014;-77
2024/03/03 10:07:23;;;;;;;;;;;6.90;99.90;;;;;;5021770;28;19989;-78
2024/03/03 10:10:05;;;;;;;;;;;6.90;99.90;;;;;;5024002;28;19986;-78
2024/03/03 10:12:31;;;;;;;;;;;6.90;99.90;;;;;;5024188;28;19986;-78
2024/03/03 10:14:57;;;;;;;;;;;6.90;99.90;;;;;;5018871;28;19993;-79
2024/03/03 10:17:23;;;;;;;;;;;7.00;99.90;;;;;;5023714;28;20723;-78
2024/03/03 10:19:49;;;;;;;;;;;7.20;99.90;;;;;;5021675;28;19996;-78
2024/03/03 10:22:17;;;;;;;;;;;7.20;99.90;;;;;;5023080;28;19985;-79
2024/03/03 10:24:43;;;;;;;;;;;7.40;99.90;;;;;;5021261;28;19986;-78
2024/03/03 10:27:14;;;;;;;;;;;7.70;99.90;;;;;;5021600;28;19993;-79
2024/03/03 10:29:42;;;;;;;;;;;8.00;99.90;;;;;;5022852;28;19985;-79
2024/03/03 10:32:09;;;;;;;;;;;8.30;99.90;;;;;;5017737;28;19985;-78
2024/03/03 10:34:35;;;;;;;;;;;8.60;99.30;;;;;;5022907;28;20623;-78
2024/03/03 10:37:02;;;;;;;;;;;8.90;98.40;;;;;;5022801;28;19993;-78
2024/03/03 10:39:28;;;;;;;;;;;9.10;97.60;;;;;;5022721;28;20094;-78
2024/03/03 10:41:54;;;;;;;;;;;9.00;97.00;;;;;;5023373;28;20040;-80
2024/03/03 10:44:20;;;;;;;;;;;8.50;97.60;;;;;;5023405;28;19985;-79
2024/03/03 10:46:46;;;;;;;;;;;8.10;99.10;;;;;;5022510;28;20088;-78
2024/03/03 10:49:12;;;;;;;;;;;8.10;99.20;;;;;;5020627;28;20104;-79
2024/03/03 10:51:38;;;;;;;;;;;8.40;99.20;;;;;;5022919;28;20013;-78
2024/03/03 10:54:04;;;;;;;;;;;8.80;98.40;;;;;;5019258;28;19986;-79
2024/03/03 10:56:30;;;;;;;;;;;9.00;97.50;;;;;;5022759;28;19986;-78
2024/03/03 10:58:56;;;;;;;;;;;9.30;96.80;;;;;;5022878;28;19986;-79
2024/03/03 11:01:22;;;;;;;;;;;9.60;96.30;;;;;;5022824;28;19990;-78
2024/03/03 11:03:50;;;;;;;;;;;9.40;96.00;;;;;;5022881;28;19992;-78
2024/03/03 11:06:16;;;;;;;;;;;8.90;96.50;;;;;;5021696;28;20020;-79
2024/03/03 11:08:49;;;;;;;;;;;8.70;97.10;;;;;;5022832;28;20407;-78
2024/03/03 11:11:16;;;;;;;;;;;8.70;97.40;;;;;;5020871;28;20384;-79
2024/03/03 11:13:45;;;;;;;;;;;8.40;97.70;;;;;;5022381;28;20033;-79
2024/03/03 11:16:12;;;;;;;;;;;8.40;97.50;;;;;;5021708;28;20798;-78
2024/03/03 11:18:39;;;;;;;;;;;8.40;97.40;;;;;;5020847;28;20057;-78
2024/03/03 11:21:08;;;;;;;;;;;8.80;97.60;;;;;;5022134;28;19986;-79
2024/03/03 11:23:46;;;;;;;;;;;8.80;97.20;;;;;;5022248;28;19989;-79
2024/03/03 11:26:15;;;;;;;;;;;9.10;97.10;;;;;;5022553;28;20010;-78
2024/03/03 11:28:47;;;;;;;;;;;9.10;95.80;;;;;;5022603;28;19985;-79
2024/03/03 11:31:13;;;;;;;;;;;9.00;96.50;;;;;;5022025;28;20004;-78
2024/03/03 11:33:39;;;;;;;;;;;9.20;96.70;;;;;;5022435;28;20709;-79
2024/03/03 11:36:04;;;;;;;;;;;8.90;96.10;;;;;;5021600;28;20085;-79
2024/03/03 11:38:50;;;;;;;;;;;8.90;97.00;;;;;;5022368;28;19986;-79
2024/03/03 11:41:20;;;;;;;;;;;8.70;97.40;;;;;;5019042;28;20055;-78
2024/03/03 11:43:46;;;;;;;;;;;8.90;97.30;;;;;;5021860;28;19985;-78
2024/03/03 11:46:31;;;;;;;;;;;9.20;96.80;;;;;;5021778;28;20043;-78
2024/03/03 11:48:57;;;;;;;;;;;9.40;96.30;;;;;;5018307;28;20349;-78
2024/03/03 11:51:28;;;;;;;;;;;9.50;95.80;;;;;;5021503;28;20028;-77
2024/03/03 11:54:03;;;;;;;;;;;9.50;95.90;;;;;;5019137;28;20029;-79
2024/03/03 11:56:30;;;;;;;;;;;10.00;95.20;;;;;;5036454;28;19996;-78
2024/03/03 11:58:56;;;;;;;;;;;9.90;94.90;;;;;;5022271;28;20014;-79
2024/03/03 12:01:22;;;;;;;;;;;10.00;95.00;;;;;;5021752;28;20064;-80
2024/03/03 12:03:48;;;;;;;;;;;10.10;94.00;;;;;;5022007;28;19990;-78
2024/03/03 12:06:15;;;;;;;;;;;10.40;94.10;;;;;;5018124;28;20010;-79
2024/03/03 12:08:41;;;;;;;;;;;10.30;92.00;;;;;;5021217;28;19990;-79
2024/03/03 12:11:11;;;;;;;;;;;10.00;92.00;;;;;;5022150;28;20631;-78
2024/03/03 12:13:37;;;;;;;;;;;9.80;91.50;;;;;;5020933;28;20017;-78
2024/03/03 12:16:03;;;;;;;;;;;9.60;90.90;;;;;;5021585;28;20073;-78
2024/03/03 12:18:28;;;;;;;;;;;9.50;91.20;;;;;;5022225;28;19993;-78
2024/03/03 12:20:54;;;;;;;;;;;9.90;90.90;;;;;;5021585;28;20048;-79
2024/03/03 12:23:19;;;;;;;;;;;9.70;88.90;;;;;;5020222;28;19990;-78
2024/03/03 12:25:45;;;;;;;;;;;9.70;90.10;;;;;;5021776;28;20005;-78
2024/03/03 12:28:10;;;;;;;;;;;9.80;90.20;;;;;;5022039;28;21066;-78
2024/03/03 12:30:36;;;;;;;;;;;9.90;90.20;;;;;;5024504;28;20472;-79
2024/03/03 12:33:05;;;;;;;;;;;9.80;90.40;;;;;;5024407;28;19990;-80
2024/03/03 12:35:31;;;;;;;;;;;9.80;89.90;;;;;;5024974;28;20461;-79
2024/03/03 12:37:57;;;;;;;;;;;9.80;89.30;;;;;;5025100;28;19989;-79
2024/03/03 12:40:26;;;;;;;;;;;9.60;89.10;;;;;;5024882;28;20040;-78
2024/03/03 12:42:52;;;;;;;;;;;9.30;87.30;;;;;;5024834;28;20040;-78
2024/03/03 12:45:18;;;;;;;;;;;9.20;88.50;;;;;;5023502;28;20005;-78
2024/03/03 12:47:44;;;;;;;;;;;9.10;89.50;;;;;;5024673;28;20074;-78
2024/03/03 12:50:13;;;;;;;;;;;9.10;88.10;;;;;;5022318;28;20021;-78
2024/03/03 12:52:42;;;;;;;;;;;9.10;90.20;;;;;;5024314;28;19985;-78
2024/03/03 12:55:11;;;;;;;;;;;9.10;88.30;;;;;;5023976;28;19986;-78
2024/03/03 12:57:37;;;;;;;;;;;8.90;86.60;;;;;;5024805;28;20110;-78
2024/03/03 13:00:05;;;;;;;;;;;8.80;85.80;;;;;;5024365;28;19993;-79
2024/03/03 13:02:31;;;;;;;;;;;8.80;86.10;;;;;;5024446;28;20229;-77
2024/03/03 13:04:57;;;;;;;;;;;8.60;88.50;;;;;;5021835;28;19997;-78
2024/03/03 13:07:22;;;;;;;;;;;8.60;86.40;;;;;;5024195;28;19993;-78
2024/03/03 13:09:48;;;;;;;;;;;8.30;84.90;;;;;;5024710;28;20037;-79
2024/03/03 13:12:15;;;;;;;;;;;8.40;87.90;;;;;;5023385;28;19996;-80
2024/03/03 13:14:40;;;;;;;;;;;8.30;86.80;;;;;;5024145;28;19985;-78
2024/03/03 13:17:07;;;;;;;;;;;8.40;85.80;;;;;;5023984;28;20403;-79
2024/03/03 13:19:42;;;;;;;;;;;8.40;85.80;;;;;;5023724;28;20009;-78
2024/03/03 13:22:07;;;;;;;;;;;8.40;87.70;;;;;;5022426;28;19985;-78
2024/03/03 13:24:33;;;;;;;;;;;8.40;86.40;;;;;;5022957;28;20094;-79
2024/03/03 13:26:59;;;;;;;;;;;8.60;87.50;;;;;;5024350;28;20671;-79
2024/03/03 13:29:24;;;;;;;;;;;8.90;86.20;;;;;;5024336;28;19986;-80
2024/03/03 13:31:50;;;;;;;;;;;9.30;85.60;;;;;;5024529;28;19986;-78
2024/03/03 13:34:16;;;;;;;;;;;9.40;84.70;;;;;;5024017;28;19994;-78
2024/03/03 13:36:41;;;;;;;;;;;9.30;82.80;;;;;;5023870;28;19986;-79
2024/03/03 13:39:07;;;;;;;;;;;9.20;83.10;;;;;;5016599;28;20532;-79
2024/03/03 13:41:32;;;;;;;;;;;9.20;82.60;;;;;;5020167;28;20464;-79
2024/03/03 13:43:58;;;;;;;;;;;9.20;83.10;;;;;;5023428;28;20036;-79
2024/03/03 13:46:23;;;;;;;;;;;9.50;83.40;;;;;;5020397;28;20005;-77
2024/03/03 13:48:49;;;;;;;;;;;9.60;82.20;;;;;;5021913;28;20721;-77
2024/03/03 13:51:14;;;;;;;;;;;9.40;80.60;;;;;;5021081;28;20018;-79
2024/03/03 13:53:40;;;;;;;;;;;9.70;82.20;;;;;;5016711;28;19990;-79
2024/03/03 13:56:06;;;;;;;;;;;9.70;81.70;;;;;;5022522;28;20005;-81
2024/03/03 13:58:31;;;;;;;;;;;9.70;81.30;;;;;;5020328;28;20563;-80
2024/03/03 14:00:57;;;;;;;;;;;9.60;81.00;;;;;;5021911;28;20029;-78
2024/03/03 14:03:24;;;;;;;;;;;9.40;80.70;;;;;;5023051;28;20464;-77
2024/03/03 14:05:49;;;;;;;;;;;9.50;82.60;;;;;;5018276;28;20169;-78
2024/03/03 14:08:15;;;;;;;;;;;9.30;80.00;;;;;;5021036;28;19985;-79
2024/03/03 14:10:40;;;;;;;;;;;9.20;80.60;;;;;;5023200;28;20512;-80
2024/03/03 14:13:06;;;;;;;;;;;9.20;80.00;;;;;;5023029;28;20342;-78
2024/03/03 14:15:32;;;;;;;;;;;9.20;79.60;;;;;;5020285;28;20480;-78
2024/03/03 14:17:57;;;;;;;;;;;9.20;79.60;;;;;;5022269;28;20069;-79
2024/03/03 14:20:24;;;;;;;;;;;9.40;79.60;;;;;;5022277;28;20532;-78
2024/03/03 14:22:50;;;;;;;;;;;9.30;79.10;;;;;;5022293;28;19994;-77